Airfield :
LOGIN :

Register | Disclaimer

   EN    FR    IT 

 










Legend :    VFR   Marginal VFR   IFR   Intensive IFR   Very Intensive IFR
Visi :
Ceiling :
>= 8 km
>= 3000ft
5 to 8 km
1000 to 3000 ft
1500m to 5 km
500 to 1000 ft
800 to 1500m
200 to 500 ft
< 800m
< 200 ft
Symbols :   Thunderstorms  Fog  Heavy snow  Heavy precipitations  Wind > 20 kt
SIGMETs :     Misc.  Thunderstorms  Icing  Turbulence  Mountain Waves  Volcanic Ashes







- Airport Elevation : 17 ft
- IATA code : STA


EKVJ - Stauning

CURRENT METAR :
  • 291250Z 26010KT 7000 BKN006 12/12 Q1014

EXPIRED METARs :
  • 291150Z 28008KT 7000 BKN006 12/12 Q1014
  • 291050Z 28006KT 6000 BKN004 12/12 Q1014

TAF AMD TAF EKVJ
Valid from the 29 at 11:00 until the 29 at 15:00 UTC


291114Z 2911/2915 27006KT 8000 BKN006
TEMPO 2911/2914 4000 BR BKN003
TEMPO 2914/2915 BKN015
No reported NOTAMs for that airfield.



MET'MAP, your aeronautical weather chart ! - Copyright ORBIFLY December 2007 - Disclaimer

ORBIFLY MET'MAP TEAM :

Programming & Development : Alexandra Zaïnal
Concept & Development : Baudouin d'Aumeries
Co-Development & Prog : Marc-Olivier Méhu
Technical & hardware support : Manuel Goepfert

Contact : metmap@orbifly.com




SOURCES & CREDITS :

   NOAA